createdAt,value
2022-11-30T00:00:24.722Z,42.15
2022-11-30T00:02:58.467Z,42.32
2022-11-30T00:05:27.089Z,42.50
2022-11-30T00:07:58.067Z,42.40
2022-11-30T00:10:26.501Z,42.42
2022-11-30T00:12:55.788Z,42.28
2022-11-30T00:15:24.111Z,42.55
2022-11-30T00:17:58.033Z,42.87
2022-11-30T00:20:27.016Z,43.16
2022-11-30T00:23:03.071Z,43.36
2022-11-30T00:25:31.337Z,43.10
2022-11-30T00:28:04.911Z,42.73
2022-11-30T00:30:33.267Z,43.37
2022-11-30T00:33:01.711Z,43.17
2022-11-30T00:35:33.034Z,43.04
2022-11-30T00:38:04.230Z,43.21
2022-11-30T00:40:32.747Z,43.70
2022-11-30T00:43:02.756Z,43.89
2022-11-30T00:45:31.157Z,43.84
2022-11-30T00:47:59.447Z,43.71
2022-11-30T00:50:30.831Z,44.13
2022-11-30T00:52:59.183Z,44.11
2022-11-30T00:55:30.399Z,44.60
2022-11-30T00:58:02.073Z,44.69
2022-11-30T01:00:30.848Z,45.04
2022-11-30T01:03:03.317Z,44.88
2022-11-30T01:05:34.126Z,44.88
2022-11-30T01:08:10.007Z,45.29
2022-11-30T01:10:42.228Z,45.33
2022-11-30T01:13:11.625Z,45.36
2022-11-30T01:15:43.518Z,45.82
2022-11-30T01:18:16.753Z,45.54
2022-11-30T01:20:45.619Z,46.19
2022-11-30T01:23:16.910Z,46.65
2022-11-30T01:25:59.239Z,46.82
2022-11-30T01:28:27.628Z,47.44
2022-11-30T01:31:18.080Z,47.47
2022-11-30T01:33:51.450Z,47.24
2022-11-30T01:36:23.641Z,47.35
2022-11-30T01:38:57.753Z,47.75
2022-11-30T01:41:32.706Z,48.04
2022-11-30T01:44:10.351Z,48.27
2022-11-30T01:46:44.715Z,48.27
2022-11-30T01:49:35.311Z,48.18
2022-11-30T01:52:23.791Z,48.57
2022-11-30T01:55:09.591Z,48.67
2022-11-30T01:57:52.127Z,48.58
2022-11-30T02:00:23.960Z,48.72
2022-11-30T02:03:20.758Z,48.81
2022-11-30T02:06:00.486Z,49.30
2022-11-30T02:08:31.296Z,49.68
2022-11-30T02:11:07.090Z,49.37
2022-11-30T02:14:01.233Z,49.87
2022-11-30T02:17:13.500Z,50.07
2022-11-30T02:20:09.273Z,49.79
2022-11-30T02:22:46.541Z,50.08
2022-11-30T02:25:20.525Z,50.08
2022-11-30T02:28:04.186Z,49.81
2022-11-30T02:30:44.080Z,50.19
2022-11-30T02:33:19.943Z,50.28
2022-11-30T02:35:58.346Z,50.45
2022-11-30T02:38:37.351Z,50.47
2022-11-30T02:41:16.566Z,50.91
2022-11-30T02:43:48.484Z,50.93
2022-11-30T02:46:40.901Z,51.30
2022-11-30T02:49:57.060Z,51.51
2022-11-30T02:52:27.321Z,51.58
2022-11-30T02:55:15.580Z,51.57
2022-11-30T02:57:44.115Z,51.79
2022-11-30T03:00:20.260Z,52.07
2022-11-30T03:02:48.787Z,52.51
2022-11-30T03:05:17.156Z,52.75
2022-11-30T03:07:53.548Z,52.84
2022-11-30T03:10:22.168Z,53.09
2022-11-30T03:12:50.606Z,52.93
2022-11-30T03:15:20.990Z,53.23
2022-11-30T03:17:52.234Z,53.49
2022-11-30T03:20:23.464Z,53.63
2022-11-30T03:22:54.346Z,53.71
2022-11-30T03:25:22.571Z,54.00
2022-11-30T03:27:53.497Z,54.06
2022-11-30T03:30:22.201Z,54.37
2022-11-30T03:32:56.201Z,54.44
2022-11-30T03:35:31.958Z,54.51
2022-11-30T03:38:06.030Z,54.73
2022-11-30T03:40:37.176Z,54.99
2022-11-30T03:43:16.363Z,54.78
2022-11-30T03:45:53.792Z,55.25
2022-11-30T03:48:26.586Z,55.05
2022-11-30T03:50:59.432Z,55.27
2022-11-30T03:53:27.731Z,55.75
2022-11-30T03:56:12.712Z,55.86
2022-11-30T03:58:42.582Z,56.11
2022-11-30T04:01:40.684Z,55.99
2022-11-30T04:04:11.792Z,56.35
2022-11-30T04:06:45.597Z,56.28
2022-11-30T04:09:18.154Z,56.19
2022-11-30T04:12:02.958Z,56.47
2022-11-30T04:14:40.426Z,56.62
2022-11-30T04:17:08.751Z,56.80
2022-11-30T04:19:40.036Z,57.11
2022-11-30T04:22:08.434Z,56.98
2022-11-30T04:24:45.365Z,57.23
2022-11-30T04:27:18.843Z,57.25
2022-11-30T04:29:53.064Z,57.30
2022-11-30T04:32:21.387Z,57.58
2022-11-30T04:34:51.777Z,57.57
2022-11-30T04:37:22.399Z,57.40
2022-11-30T04:39:59.791Z,57.42
2022-11-30T04:42:33.530Z,57.73
2022-11-30T04:45:06.751Z,57.79
2022-11-30T04:47:42.641Z,57.24
2022-11-30T04:50:13.545Z,57.54
2022-11-30T04:52:53.674Z,57.67
2022-11-30T04:55:28.839Z,57.62
2022-11-30T04:58:23.565Z,57.52
2022-11-30T05:00:56.421Z,57.41
2022-11-30T05:03:27.602Z,57.29
2022-11-30T05:05:57.701Z,57.21
2022-11-30T05:08:34.497Z,57.14
2022-11-30T05:11:15.782Z,56.83
2022-11-30T05:13:49.030Z,56.61
2022-11-30T05:16:25.021Z,56.21
2022-11-30T05:18:57.830Z,56.32
2022-11-30T05:21:33.827Z,56.54
2022-11-30T05:24:18.166Z,56.36
2022-11-30T05:26:54.583Z,56.38
2022-11-30T05:29:25.403Z,56.84
2022-11-30T05:32:00.643Z,56.65
2022-11-30T05:34:41.311Z,56.18
2022-11-30T05:37:21.227Z,56.55
2022-11-30T05:39:49.506Z,56.22
2022-11-30T05:42:32.180Z,56.69
2022-11-30T05:45:05.576Z,56.42
2022-11-30T05:47:46.791Z,56.43
2022-11-30T05:50:16.880Z,56.90
2022-11-30T05:53:07.846Z,56.46
2022-11-30T05:55:39.267Z,56.54
2022-11-30T05:58:18.176Z,56.74
2022-11-30T06:03:37.543Z,57.03
2022-11-30T06:06:12.054Z,57.11
2022-11-30T06:11:35.633Z,57.51
2022-11-30T06:14:12.634Z,57.27
2022-11-30T06:17:10.446Z,57.15
2022-11-30T06:19:49.978Z,56.83
2022-11-30T06:22:24.511Z,57.85
2022-11-30T06:24:57.206Z,57.61
2022-11-30T06:30:26.731Z,57.55
2022-11-30T06:33:09.103Z,57.38
2022-11-30T06:35:46.837Z,57.62
2022-11-30T06:38:27.403Z,57.34
2022-11-30T06:41:17.173Z,57.36
2022-11-30T06:43:52.967Z,57.46
2022-11-30T06:46:30.990Z,57.87
2022-11-30T06:49:15.884Z,57.48
2022-11-30T06:51:55.839Z,57.65
2022-11-30T06:54:27.146Z,57.88
2022-11-30T06:57:04.161Z,58.29
2022-11-30T06:59:40.925Z,58.40
2022-11-30T07:02:19.210Z,58.15
2022-11-30T07:04:52.737Z,58.06
2022-11-30T07:07:26.451Z,58.50
2022-11-30T07:10:10.462Z,58.22
2022-11-30T07:12:48.116Z,57.91
2022-11-30T07:15:31.146Z,58.17
2022-11-30T07:18:02.774Z,58.60
2022-11-30T07:20:40.228Z,58.66
2022-11-30T07:23:32.693Z,58.79
2022-11-30T07:26:08.085Z,58.38
2022-11-30T07:28:49.221Z,58.47
2022-11-30T07:31:39.493Z,58.67
2022-11-30T07:34:14.281Z,58.24
2022-11-30T07:39:49.388Z,59.07
2022-11-30T07:42:32.082Z,58.58
2022-11-30T07:45:02.552Z,58.91
2022-11-30T07:47:37.618Z,58.53
2022-11-30T07:50:35.663Z,58.79
2022-11-30T07:53:16.621Z,58.62
2022-11-30T07:55:47.834Z,58.51
2022-11-30T07:58:26.198Z,58.94
2022-11-30T08:01:06.594Z,58.81
2022-11-30T08:03:40.388Z,59.54
2022-11-30T08:06:17.388Z,59.17
2022-11-30T08:08:46.697Z,58.38
2022-11-30T08:11:36.689Z,59.29
2022-11-30T08:14:13.514Z,58.74
2022-11-30T08:16:58.451Z,59.60
2022-11-30T08:19:41.648Z,59.04
2022-11-30T08:22:10.987Z,59.22
2022-11-30T08:24:52.265Z,60.04
2022-11-30T08:27:30.346Z,59.49
2022-11-30T08:30:06.204Z,59.33
2022-11-30T08:32:59.577Z,60.28
2022-11-30T08:35:43.262Z,59.95
2022-11-30T08:38:19.950Z,59.94
2022-11-30T08:40:53.937Z,59.63
2022-11-30T08:43:30.205Z,59.28
2022-11-30T08:46:27.388Z,59.75
2022-11-30T08:49:25.770Z,60.22
2022-11-30T08:52:20.098Z,59.74
2022-11-30T08:54:56.968Z,60.20
2022-11-30T08:57:32.911Z,59.85
2022-11-30T09:00:07.983Z,59.45
2022-11-30T09:03:04.385Z,60.20
2022-11-30T09:05:38.492Z,60.11
2022-11-30T09:08:18.620Z,60.14
2022-11-30T09:11:04.426Z,60.18
2022-11-30T09:13:44.387Z,60.44
2022-11-30T09:16:50.263Z,60.37
2022-11-30T09:19:23.398Z,60.39
2022-11-30T09:22:14.351Z,60.72
2022-11-30T09:24:48.529Z,60.43
2022-11-30T09:27:22.000Z,60.55
2022-11-30T09:30:15.477Z,60.66
2022-11-30T09:33:01.504Z,60.59
2022-11-30T09:35:34.586Z,60.83
2022-11-30T09:38:12.857Z,60.75
2022-11-30T09:40:50.746Z,61.19
2022-11-30T09:43:51.552Z,61.00
2022-11-30T09:46:36.470Z,61.04
2022-11-30T09:52:46.912Z,60.72
2022-11-30T09:55:42.253Z,61.11
2022-11-30T09:58:38.419Z,61.28
2022-11-30T10:01:19.004Z,60.91
2022-11-30T10:03:55.557Z,60.76
2022-11-30T10:07:23.184Z,60.93
2022-11-30T10:10:32.110Z,60.74
2022-11-30T10:18:11.956Z,60.79
2022-11-30T10:20:39.327Z,61.35
2022-11-30T10:23:44.537Z,61.21
2022-11-30T10:26:33.352Z,61.06
2022-11-30T10:29:47.563Z,61.87
2022-11-30T10:32:31.717Z,61.74
2022-11-30T10:35:30.081Z,61.27
2022-11-30T10:38:24.195Z,61.82
2022-11-30T10:44:41.626Z,62.23
2022-11-30T10:47:42.986Z,61.98
2022-11-30T10:50:29.161Z,62.31
2022-11-30T10:53:18.478Z,61.80
2022-11-30T10:56:36.403Z,62.32
2022-11-30T10:59:35.496Z,62.06
2022-11-30T11:02:49.869Z,62.04
2022-11-30T11:05:54.827Z,61.93
2022-11-30T11:08:54.312Z,62.56
2022-11-30T11:11:45.787Z,62.51
2022-11-30T11:14:31.369Z,62.58
2022-11-30T11:17:46.030Z,62.69
2022-11-30T11:21:12.133Z,61.98
2022-11-30T11:23:57.437Z,62.48
2022-11-30T11:26:43.945Z,62.46
2022-11-30T11:29:43.827Z,62.04
2022-11-30T11:35:53.400Z,62.98
2022-11-30T11:38:41.458Z,62.86
2022-11-30T11:41:37.551Z,62.42
2022-11-30T11:45:21.509Z,63.03
2022-11-30T11:48:28.647Z,62.40
2022-11-30T11:51:25.061Z,62.48
2022-11-30T11:54:26.546Z,62.77
2022-11-30T11:57:24.900Z,62.44
2022-11-30T12:00:20.516Z,62.39
2022-11-30T12:03:23.136Z,63.16
2022-11-30T12:09:59.895Z,63.08
2022-11-30T12:12:50.660Z,63.00
2022-11-30T12:19:32.618Z,63.46
2022-11-30T12:22:40.431Z,63.41
2022-11-30T12:25:51.202Z,63.38
2022-11-30T12:29:12.512Z,62.72
2022-11-30T12:35:58.816Z,63.77
2022-11-30T12:42:27.304Z,63.58
2022-11-30T12:48:45.268Z,63.69
2022-11-30T12:51:42.800Z,63.82
2022-11-30T12:54:25.501Z,63.78
2022-11-30T12:57:59.916Z,63.94
2022-11-30T13:01:02.262Z,64.07
2022-11-30T13:04:47.165Z,63.74
2022-11-30T13:08:13.917Z,64.15
2022-11-30T13:15:30.478Z,63.88
2022-11-30T13:17:36.840Z,63.70
2022-11-30T13:21:06.834Z,63.57
2022-11-30T13:24:32.995Z,63.89
2022-11-30T13:27:50.244Z,64.21
2022-11-30T13:31:35.960Z,63.83
2022-11-30T13:34:30.311Z,64.03
2022-11-30T13:37:38.817Z,63.93
2022-11-30T13:40:43.630Z,64.11
2022-11-30T13:44:12.926Z,64.11
2022-11-30T13:47:28.878Z,64.83
2022-11-30T13:50:37.955Z,64.31
2022-11-30T13:57:09.688Z,64.83
2022-11-30T14:09:56.531Z,64.49
2022-11-30T14:13:38.290Z,64.44
2022-11-30T14:19:31.441Z,64.92
2022-11-30T14:24:23.527Z,65.04
2022-11-30T14:29:31.752Z,64.54
2022-11-30T14:33:08.940Z,64.31
2022-11-30T14:36:01.352Z,64.55
2022-11-30T14:38:52.119Z,64.39
2022-11-30T14:42:08.407Z,64.46
2022-11-30T14:54:44.390Z,65.15
2022-11-30T14:58:32.185Z,64.99
2022-11-30T15:01:25.363Z,65.30
2022-11-30T15:04:44.145Z,65.41
2022-11-30T15:14:41.929Z,65.32
2022-11-30T15:20:35.598Z,65.20
2022-11-30T15:23:53.303Z,65.27
2022-11-30T15:26:47.480Z,65.56
2022-11-30T15:31:23.070Z,65.46
2022-11-30T15:35:22.328Z,65.41
2022-11-30T15:36:46.405Z,65.87
2022-11-30T15:39:49.543Z,65.58
2022-11-30T15:46:01.458Z,65.12
2022-11-30T15:48:59.605Z,65.09
2022-11-30T15:52:57.586Z,65.25
2022-11-30T15:55:39.268Z,65.23
2022-11-30T16:02:26.726Z,65.27
2022-11-30T16:05:37.410Z,64.87
2022-11-30T16:08:29.776Z,65.04
2022-11-30T16:17:16.313Z,64.86
2022-11-30T16:20:29.239Z,65.64
2022-11-30T16:23:24.018Z,64.85
2022-11-30T16:25:58.974Z,64.80
2022-11-30T16:29:12.302Z,65.11
2022-11-30T16:32:30.243Z,65.45
2022-11-30T16:35:33.749Z,64.94
2022-11-30T16:38:28.568Z,65.17
2022-11-30T16:41:44.789Z,64.82
2022-11-30T16:44:56.403Z,64.28
2022-11-30T16:50:59.020Z,64.19
2022-11-30T16:53:53.803Z,64.37
2022-11-30T16:56:59.822Z,64.54
2022-11-30T16:59:49.253Z,64.40
2022-11-30T17:02:38.393Z,64.38
2022-11-30T17:05:44.765Z,63.48
2022-11-30T17:08:54.453Z,63.73
2022-11-30T17:12:12.665Z,63.48
2022-11-30T17:15:01.684Z,63.58
2022-11-30T17:17:59.278Z,63.12
2022-11-30T17:21:10.885Z,63.43
2022-11-30T17:23:34.277Z,63.14
2022-11-30T17:26:20.085Z,62.92
2022-11-30T17:29:36.472Z,62.84
2022-11-30T17:32:07.905Z,62.74
2022-11-30T17:34:47.473Z,62.55
2022-11-30T17:37:38.641Z,62.31
2022-11-30T17:40:20.985Z,61.73
2022-11-30T17:42:55.930Z,61.78
2022-11-30T17:45:40.264Z,61.89
2022-11-30T17:48:52.300Z,61.66
2022-11-30T17:51:30.192Z,61.76
2022-11-30T17:54:09.128Z,61.84
2022-11-30T17:57:14.521Z,61.67
2022-11-30T17:59:49.690Z,61.39
2022-11-30T18:05:27.005Z,61.05
2022-11-30T18:08:17.629Z,60.55
2022-11-30T18:10:51.091Z,60.42
2022-11-30T18:13:35.065Z,60.09
2022-11-30T18:16:27.567Z,59.96
2022-11-30T18:18:59.415Z,59.79
2022-11-30T18:21:35.849Z,59.43
2022-11-30T18:24:13.727Z,59.39
2022-11-30T18:26:47.216Z,59.42
2022-11-30T18:29:18.559Z,58.99
2022-11-30T18:32:05.790Z,58.96
2022-11-30T18:34:44.506Z,58.82
2022-11-30T18:37:20.844Z,59.02
2022-11-30T18:40:04.802Z,58.70
2022-11-30T18:45:26.026Z,58.17
2022-11-30T18:48:18.909Z,57.87
2022-11-30T18:51:01.337Z,57.65
2022-11-30T18:53:32.831Z,57.78
2022-11-30T18:56:15.307Z,57.25
2022-11-30T18:58:54.826Z,57.19
2022-11-30T19:01:32.257Z,56.98
2022-11-30T19:04:12.319Z,56.55
2022-11-30T19:06:47.710Z,56.61
2022-11-30T19:09:26.125Z,56.01
2022-11-30T19:12:12.367Z,55.88
2022-11-30T19:14:46.890Z,55.77
2022-11-30T19:17:15.036Z,55.53
2022-11-30T19:19:58.029Z,55.35
2022-11-30T19:22:33.901Z,55.18
2022-11-30T19:25:05.233Z,54.98
2022-11-30T19:27:41.506Z,54.74
2022-11-30T19:30:13.391Z,54.85
2022-11-30T19:32:43.659Z,54.21
2022-11-30T19:35:11.961Z,54.09
2022-11-30T19:37:45.334Z,52.80
2022-11-30T19:40:22.935Z,53.44
2022-11-30T19:42:58.443Z,53.34
2022-11-30T19:45:26.823Z,53.46
2022-11-30T19:47:55.150Z,52.76
2022-11-30T19:50:32.073Z,52.80
2022-11-30T19:53:01.223Z,52.61
2022-11-30T19:55:32.544Z,52.11
2022-11-30T19:58:07.455Z,51.59
2022-11-30T20:00:39.475Z,51.97
2022-11-30T20:03:12.749Z,51.58
2022-11-30T20:06:04.246Z,51.33
2022-11-30T20:08:41.069Z,51.58
2022-11-30T20:11:13.240Z,51.63
2022-11-30T20:13:44.037Z,51.50
2022-11-30T20:16:21.998Z,51.24
2022-11-30T20:19:04.365Z,50.86
2022-11-30T20:21:37.306Z,51.26
2022-11-30T20:24:17.019Z,51.16
2022-11-30T20:26:51.307Z,50.86
2022-11-30T20:29:20.847Z,50.85
2022-11-30T20:32:09.388Z,51.01
2022-11-30T20:34:44.646Z,50.20
2022-11-30T20:37:13.607Z,50.31
2022-11-30T20:39:54.580Z,50.57
2022-11-30T20:42:25.891Z,50.03
2022-11-30T20:44:54.244Z,50.35
2022-11-30T20:47:29.893Z,49.54
2022-11-30T20:50:05.019Z,49.62
2022-11-30T20:52:33.383Z,49.81
2022-11-30T20:55:03.535Z,49.44
2022-11-30T20:57:34.820Z,49.26
2022-11-30T21:00:13.087Z,49.42
2022-11-30T21:02:41.844Z,49.01
2022-11-30T21:05:10.584Z,49.00
2022-11-30T21:07:57.178Z,48.65
2022-11-30T21:10:30.379Z,48.46
2022-11-30T21:12:58.838Z,47.35
2022-11-30T21:15:32.027Z,46.97
2022-11-30T21:18:03.444Z,47.28
2022-11-30T21:20:36.428Z,47.01
2022-11-30T21:23:07.623Z,47.20
2022-11-30T21:25:42.015Z,47.22
2022-11-30T21:28:20.375Z,47.47
2022-11-30T21:31:07.998Z,47.42
2022-11-30T21:33:36.390Z,47.05
2022-11-30T21:36:12.569Z,46.40
2022-11-30T21:38:44.944Z,46.64
2022-11-30T21:41:16.845Z,46.67
2022-11-30T21:43:47.791Z,46.67
2022-11-30T21:46:19.208Z,46.24
2022-11-30T21:49:05.257Z,46.17
2022-11-30T21:51:38.443Z,45.61
2022-11-30T21:54:23.235Z,45.11
2022-11-30T21:56:54.670Z,45.71
2022-11-30T21:59:25.222Z,45.55
2022-11-30T22:01:53.520Z,45.09
2022-11-30T22:04:27.820Z,45.10
2022-11-30T22:06:58.495Z,45.42
2022-11-30T22:09:26.824Z,44.55
2022-11-30T22:11:58.665Z,44.86
2022-11-30T22:14:35.786Z,45.00
2022-11-30T22:17:04.197Z,45.07
2022-11-30T22:19:32.579Z,44.92
2022-11-30T22:22:03.954Z,45.32
2022-11-30T22:24:34.827Z,45.15
2022-11-30T22:27:03.148Z,44.69
2022-11-30T22:29:37.070Z,44.32
2022-11-30T22:32:06.178Z,44.65
2022-11-30T22:34:34.831Z,44.21
2022-11-30T22:37:05.627Z,44.25
2022-11-30T22:39:33.978Z,44.43
2022-11-30T22:42:07.464Z,44.78
2022-11-30T22:44:38.019Z,44.54
2022-11-30T22:47:08.894Z,44.75
2022-11-30T22:49:40.502Z,43.94
2022-11-30T22:52:11.084Z,44.17
2022-11-30T22:54:39.502Z,44.60
2022-11-30T22:57:16.795Z,44.84
2022-11-30T22:59:45.410Z,44.94
2022-11-30T23:02:24.350Z,44.68
2022-11-30T23:04:52.744Z,44.99
2022-11-30T23:07:21.093Z,45.02
2022-11-30T23:09:51.375Z,44.96
2022-11-30T23:12:57.515Z,44.74
2022-11-30T23:15:17.310Z,44.37
2022-11-30T23:17:45.679Z,44.18
2022-11-30T23:20:16.936Z,44.14
2022-11-30T23:22:54.290Z,43.58
2022-11-30T23:25:23.186Z,43.35
2022-11-30T23:27:51.484Z,42.70
2022-11-30T23:30:24.499Z,43.58
2022-11-30T23:32:58.843Z,43.88
2022-11-30T23:35:34.186Z,44.70
2022-11-30T23:38:11.740Z,44.68
2022-11-30T23:40:43.144Z,44.97
2022-11-30T23:43:11.479Z,44.86
2022-11-30T23:45:45.585Z,44.67
2022-11-30T23:48:17.081Z,44.64
2022-11-30T23:50:46.309Z,44.88
2022-11-30T23:53:26.210Z,44.59
2022-11-30T23:55:57.545Z,44.79
2022-11-30T23:58:27.671Z,44.91
